createdAt,value
2022-10-01T00:00:30.469Z,992.98
2022-10-01T00:01:30.538Z,992.95
2022-10-01T00:02:30.486Z,992.97
2022-10-01T00:03:30.467Z,992.94
2022-10-01T00:04:30.432Z,992.96
2022-10-01T00:05:30.430Z,992.91
2022-10-01T00:06:30.418Z,992.94
2022-10-01T00:07:30.414Z,992.90
2022-10-01T00:08:30.430Z,992.89
2022-10-01T00:09:30.393Z,992.88
2022-10-01T00:10:30.387Z,992.84
2022-10-01T00:11:31.634Z,992.86
2022-10-01T00:12:30.368Z,992.85
2022-10-01T00:13:30.436Z,992.78
2022-10-01T00:14:30.354Z,992.76
2022-10-01T00:15:30.371Z,992.77
2022-10-01T00:16:30.386Z,992.73
2022-10-01T00:17:30.329Z,992.76
2022-10-01T00:18:30.361Z,992.73
2022-10-01T00:19:30.312Z,992.72
2022-10-01T00:20:30.310Z,992.70
2022-10-01T00:21:30.295Z,992.71
2022-10-01T00:22:30.289Z,992.73
2022-10-01T00:23:30.994Z,992.67
2022-10-01T00:24:30.269Z,992.68
2022-10-01T00:25:30.263Z,992.64
2022-10-01T00:26:30.245Z,992.60
2022-10-01T00:27:30.244Z,992.65
2022-10-01T00:28:30.271Z,992.58
2022-10-01T00:29:30.226Z,992.67
2022-10-01T00:30:30.220Z,992.64
2022-10-01T00:31:30.307Z,992.66
2022-10-01T00:32:30.192Z,992.60
2022-10-01T00:33:30.224Z,992.54
2022-10-01T00:34:30.183Z,992.58
2022-10-01T00:35:30.178Z,992.55
2022-10-01T00:36:30.161Z,992.55
2022-10-01T00:37:30.157Z,992.47
2022-10-01T00:38:30.178Z,992.50
2022-10-01T00:39:30.141Z,992.48
2022-10-01T00:40:30.146Z,992.47
2022-10-01T00:41:30.289Z,992.48
2022-10-01T00:42:30.119Z,992.42
2022-10-01T00:43:30.134Z,992.43
2022-10-01T00:44:30.117Z,992.40
2022-10-01T00:45:30.188Z,992.43
2022-10-01T00:46:30.089Z,992.36
2022-10-01T00:47:30.083Z,992.35
2022-10-01T00:48:30.092Z,992.31
2022-10-01T00:49:30.058Z,992.28
2022-10-01T00:50:30.073Z,992.33
2022-10-01T00:51:30.038Z,992.34
2022-10-01T00:52:30.031Z,992.24
2022-10-01T00:53:30.025Z,992.16
2022-10-01T00:54:30.038Z,992.24
2022-10-01T00:55:30.002Z,992.23
2022-10-01T00:56:29.984Z,992.22
2022-10-01T00:57:30.987Z,992.20
2022-10-01T00:58:30.038Z,992.15
2022-10-01T00:59:29.998Z,992.20
2022-10-01T01:00:29.959Z,992.10
2022-10-01T01:01:29.999Z,992.18
2022-10-01T01:02:29.978Z,992.12
2022-10-01T01:03:29.941Z,992.10
2022-10-01T01:04:29.956Z,992.10
2022-10-01T01:05:29.912Z,992.08
2022-10-01T01:06:29.908Z,992.08
2022-10-01T01:07:29.900Z,992.08
2022-10-01T01:08:29.891Z,992.06
2022-10-01T01:09:29.923Z,992.08
2022-10-01T01:10:29.879Z,992.02
2022-10-01T01:11:29.866Z,991.95
2022-10-01T01:12:29.859Z,991.97
2022-10-01T01:13:29.849Z,992.03
2022-10-01T01:14:29.869Z,991.97
2022-10-01T01:15:29.881Z,991.96
2022-10-01T01:16:29.848Z,991.99
2022-10-01T01:17:29.818Z,991.98
2022-10-01T01:18:29.834Z,991.98
2022-10-01T01:19:29.838Z,992.00
2022-10-01T01:20:29.794Z,992.00
2022-10-01T01:21:29.787Z,991.94
2022-10-01T01:22:29.791Z,991.96
2022-10-01T01:23:29.770Z,991.95
2022-10-01T01:24:29.788Z,991.95
2022-10-01T01:25:29.752Z,991.95
2022-10-01T01:26:29.743Z,991.94
2022-10-01T01:27:29.747Z,991.99
2022-10-01T01:28:29.783Z,991.90
2022-10-01T01:29:29.755Z,991.92
2022-10-01T01:30:29.703Z,991.88
2022-10-01T01:31:29.744Z,991.88
2022-10-01T01:32:29.693Z,991.89
2022-10-01T01:33:29.694Z,991.89
2022-10-01T01:34:29.715Z,991.87
2022-10-01T01:35:29.669Z,991.89
2022-10-01T01:36:29.660Z,991.86
2022-10-01T01:37:29.656Z,991.87
2022-10-01T01:38:29.639Z,991.86
2022-10-01T01:39:29.668Z,991.85
2022-10-01T01:40:29.625Z,991.81
2022-10-01T01:41:29.620Z,991.78
2022-10-01T01:42:29.605Z,991.84
2022-10-01T01:43:29.643Z,991.77
2022-10-01T01:44:29.588Z,991.76
2022-10-01T01:45:29.701Z,991.71
2022-10-01T01:46:29.578Z,991.75
2022-10-01T01:47:29.567Z,991.68
2022-10-01T01:48:29.562Z,991.70
2022-10-01T01:49:29.602Z,991.65
2022-10-01T01:50:29.569Z,991.72
2022-10-01T01:51:29.533Z,991.70
2022-10-01T01:52:29.529Z,991.61
2022-10-01T01:53:29.515Z,991.58
2022-10-01T01:54:29.518Z,991.60
2022-10-01T01:55:29.528Z,991.54
2022-10-01T01:56:30.491Z,991.56
2022-10-01T01:57:29.487Z,991.55
2022-10-01T01:58:29.477Z,991.51
2022-10-01T01:59:29.462Z,991.49
2022-10-01T02:00:30.486Z,991.49
2022-10-01T02:01:29.647Z,991.52
2022-10-01T02:02:29.479Z,991.49
2022-10-01T02:03:29.435Z,991.47
2022-10-01T02:04:29.460Z,991.52
2022-10-01T02:05:29.445Z,991.54
2022-10-01T02:06:29.409Z,991.50
2022-10-01T02:07:29.406Z,991.48
2022-10-01T02:08:29.388Z,991.51
2022-10-01T02:09:29.383Z,991.49
2022-10-01T02:10:29.447Z,991.45
2022-10-01T02:11:29.360Z,991.46
2022-10-01T02:12:29.364Z,991.49
2022-10-01T02:13:29.352Z,991.44
2022-10-01T02:14:29.355Z,991.47
2022-10-01T02:15:29.339Z,991.47
2022-10-01T02:16:29.356Z,991.43
2022-10-01T02:17:29.321Z,991.46
2022-10-01T02:18:29.314Z,991.49
2022-10-01T02:19:29.320Z,991.43
2022-10-01T02:20:29.324Z,991.38
2022-10-01T02:21:29.322Z,991.41
2022-10-01T02:22:29.287Z,991.40
2022-10-01T02:23:29.268Z,991.45
2022-10-01T02:24:29.258Z,991.44
2022-10-01T02:25:29.296Z,991.41
2022-10-01T02:26:29.250Z,991.42
2022-10-01T02:27:29.234Z,991.37
2022-10-01T02:28:29.252Z,991.37
2022-10-01T02:29:29.218Z,991.37
2022-10-01T02:30:29.243Z,991.38
2022-10-01T02:31:29.268Z,991.34
2022-10-01T02:32:29.191Z,991.35
2022-10-01T02:33:29.190Z,991.33
2022-10-01T02:34:29.174Z,991.37
2022-10-01T02:35:29.167Z,991.31
2022-10-01T02:36:29.203Z,991.22
2022-10-01T02:37:29.151Z,991.25
2022-10-01T02:38:29.141Z,991.29
2022-10-01T02:39:29.124Z,991.27
2022-10-01T02:40:29.153Z,991.26
2022-10-01T02:41:29.159Z,991.23
2022-10-01T02:42:29.105Z,991.23
2022-10-01T02:43:29.098Z,991.27
2022-10-01T02:44:29.087Z,991.19
2022-10-01T02:45:29.094Z,991.22
2022-10-01T02:46:29.097Z,991.16
2022-10-01T02:47:29.066Z,991.20
2022-10-01T02:48:29.049Z,991.10
2022-10-01T02:49:30.865Z,991.10
2022-10-01T02:50:30.038Z,991.11
2022-10-01T02:51:29.062Z,991.10
2022-10-01T02:52:29.027Z,991.13
2022-10-01T02:53:29.016Z,991.21
2022-10-01T02:54:29.015Z,991.14
2022-10-01T02:55:29.004Z,991.11
2022-10-01T02:56:29.023Z,991.08
2022-10-01T02:57:29.003Z,991.08
2022-10-01T02:58:28.973Z,991.12
2022-10-01T02:59:28.964Z,991.00
2022-10-01T03:00:28.954Z,991.09
2022-10-01T03:01:29.011Z,990.96
2022-10-01T03:02:29.051Z,991.03
2022-10-01T03:03:28.942Z,990.92
2022-10-01T03:04:28.922Z,990.93
2022-10-01T03:05:28.901Z,990.96
2022-10-01T03:06:29.907Z,990.81
2022-10-01T03:07:28.922Z,990.81
2022-10-01T03:08:28.881Z,990.90
2022-10-01T03:09:28.873Z,990.77
2022-10-01T03:10:29.867Z,990.78
2022-10-01T03:11:28.856Z,990.73
2022-10-01T03:12:28.881Z,990.76
2022-10-01T03:13:28.841Z,990.74
2022-10-01T03:14:28.846Z,990.68
2022-10-01T03:15:28.829Z,990.71
2022-10-01T03:16:28.889Z,990.67
2022-10-01T03:17:28.840Z,990.65
2022-10-01T03:18:28.806Z,990.65
2022-10-01T03:19:28.790Z,990.62
2022-10-01T03:20:28.789Z,990.61
2022-10-01T03:21:28.776Z,990.62
2022-10-01T03:22:28.809Z,990.56
2022-10-01T03:23:28.765Z,990.60
2022-10-01T03:24:28.750Z,990.56
2022-10-01T03:25:28.742Z,990.58
2022-10-01T03:26:28.748Z,990.53
2022-10-01T03:27:28.765Z,990.55
2022-10-01T03:28:28.780Z,990.50
2022-10-01T03:29:28.729Z,990.52
2022-10-01T03:30:28.691Z,990.38
2022-10-01T03:31:28.733Z,990.45
2022-10-01T03:32:28.719Z,990.37
2022-10-01T03:33:28.698Z,990.37
2022-10-01T03:34:28.670Z,990.39
2022-10-01T03:35:28.641Z,990.36
2022-10-01T03:36:29.645Z,990.28
2022-10-01T03:37:28.670Z,990.29
2022-10-01T03:38:28.642Z,990.34
2022-10-01T03:39:28.622Z,990.39
2022-10-01T03:40:28.615Z,990.31
2022-10-01T03:41:28.605Z,990.28
2022-10-01T03:42:28.633Z,990.34
2022-10-01T03:43:28.591Z,990.31
2022-10-01T03:44:28.589Z,990.24
2022-10-01T03:45:28.607Z,990.16
2022-10-01T03:46:28.572Z,990.20
2022-10-01T03:47:28.589Z,990.16
2022-10-01T03:48:28.549Z,990.08
2022-10-01T03:49:28.561Z,990.14
2022-10-01T03:50:28.556Z,990.13
2022-10-01T03:51:28.525Z,990.06
2022-10-01T03:52:28.544Z,990.13
2022-10-01T03:53:28.510Z,990.02
2022-10-01T03:54:28.506Z,990.03
2022-10-01T03:55:28.492Z,989.97
2022-10-01T03:56:28.489Z,990.02
2022-10-01T03:57:28.509Z,990.06
2022-10-01T03:58:28.477Z,990.04
2022-10-01T03:59:28.457Z,990.01
2022-10-01T04:00:28.455Z,989.94
2022-10-01T04:01:28.493Z,989.95
2022-10-01T04:02:28.564Z,989.87
2022-10-01T04:03:28.425Z,989.84
2022-10-01T04:04:28.416Z,989.83
2022-10-01T04:05:28.414Z,989.85
2022-10-01T04:06:28.407Z,989.83
2022-10-01T04:07:28.418Z,989.77
2022-10-01T04:08:28.385Z,989.81
2022-10-01T04:09:28.377Z,989.77
2022-10-01T04:10:28.367Z,989.72
2022-10-01T04:11:28.354Z,989.75
2022-10-01T04:12:28.374Z,989.74
2022-10-01T04:13:28.343Z,989.71
2022-10-01T04:14:28.330Z,989.80
2022-10-01T04:15:28.329Z,989.76
2022-10-01T04:16:28.369Z,989.79
2022-10-01T04:17:28.344Z,989.80
2022-10-01T04:18:28.301Z,989.68
2022-10-01T04:19:28.285Z,989.74
2022-10-01T04:20:28.287Z,989.78
2022-10-01T04:21:28.274Z,989.81
2022-10-01T04:22:28.302Z,989.75
2022-10-01T04:23:28.263Z,989.79
2022-10-01T04:24:28.245Z,989.83
2022-10-01T04:25:28.241Z,989.83
2022-10-01T04:26:28.232Z,989.82
2022-10-01T04:27:28.250Z,989.81
2022-10-01T04:28:28.297Z,989.87
2022-10-01T04:29:28.206Z,989.89
2022-10-01T04:30:28.199Z,989.83
2022-10-01T04:31:28.245Z,989.72
2022-10-01T04:32:28.212Z,989.80
2022-10-01T04:33:28.171Z,989.78
2022-10-01T04:34:28.164Z,989.83
2022-10-01T04:35:28.155Z,989.85
2022-10-01T04:36:28.266Z,989.80
2022-10-01T04:37:28.171Z,989.83
2022-10-01T04:38:28.137Z,989.79
2022-10-01T04:39:28.128Z,989.77
2022-10-01T04:40:28.121Z,989.77
2022-10-01T04:41:28.103Z,989.82
2022-10-01T04:42:28.130Z,989.83
2022-10-01T04:43:28.095Z,989.82
2022-10-01T04:44:28.086Z,989.83
2022-10-01T04:45:28.077Z,989.80
2022-10-01T04:46:28.101Z,989.75
2022-10-01T04:47:28.055Z,989.89
2022-10-01T04:48:28.090Z,989.80
2022-10-01T04:49:28.042Z,989.74
2022-10-01T04:50:28.033Z,989.78
2022-10-01T04:51:28.032Z,989.70
2022-10-01T04:52:28.017Z,989.78
2022-10-01T04:53:28.032Z,989.78
2022-10-01T04:54:28.003Z,989.80
2022-10-01T04:55:27.997Z,989.83
2022-10-01T04:56:27.986Z,989.79
2022-10-01T04:57:27.978Z,989.76
2022-10-01T04:58:27.989Z,989.82
2022-10-01T04:59:27.957Z,989.79
2022-10-01T05:00:27.944Z,989.79
2022-10-01T05:01:28.031Z,989.82
2022-10-01T05:02:27.982Z,989.77
2022-10-01T05:03:27.956Z,989.78
2022-10-01T05:04:27.914Z,989.77
2022-10-01T05:05:27.914Z,989.80
2022-10-01T05:06:27.919Z,989.79
2022-10-01T05:07:27.898Z,989.70
2022-10-01T05:08:27.926Z,989.73
2022-10-01T05:09:27.882Z,989.80
2022-10-01T05:10:27.866Z,989.80
2022-10-01T05:11:27.852Z,989.73
2022-10-01T05:12:27.847Z,989.79
2022-10-01T05:13:27.865Z,989.73
2022-10-01T05:14:27.825Z,989.81
2022-10-01T05:15:27.825Z,989.83
2022-10-01T05:16:27.865Z,989.81
2022-10-01T05:17:27.835Z,989.76
2022-10-01T05:18:27.797Z,989.83
2022-10-01T05:19:28.180Z,989.79
2022-10-01T05:20:28.782Z,989.74
2022-10-01T05:21:27.776Z,989.81
2022-10-01T05:22:27.799Z,989.80
2022-10-01T05:23:28.760Z,989.81
2022-10-01T05:24:27.754Z,989.76
2022-10-01T05:25:27.739Z,989.76
2022-10-01T05:26:27.730Z,989.74
2022-10-01T05:27:27.725Z,989.76
2022-10-01T05:28:27.804Z,989.79
2022-10-01T05:29:27.705Z,989.74
2022-10-01T05:30:27.701Z,989.70
2022-10-01T05:31:27.718Z,989.71
2022-10-01T05:32:27.689Z,989.71
2022-10-01T05:33:27.701Z,989.71
2022-10-01T05:34:27.664Z,989.70
2022-10-01T05:35:27.665Z,989.63
2022-10-01T05:36:27.654Z,989.69
2022-10-01T05:37:27.632Z,989.57
2022-10-01T05:38:27.660Z,989.65
2022-10-01T05:39:27.619Z,989.58
2022-10-01T05:40:27.612Z,989.60
2022-10-01T05:41:27.603Z,989.60
2022-10-01T05:42:27.597Z,989.53
2022-10-01T05:43:27.615Z,989.54
2022-10-01T05:44:27.575Z,989.58
2022-10-01T05:45:27.624Z,989.49
2022-10-01T05:46:27.564Z,989.52
2022-10-01T05:47:27.555Z,989.46
2022-10-01T05:48:27.583Z,989.47
2022-10-01T05:49:27.535Z,989.46
2022-10-01T05:50:27.536Z,989.41
2022-10-01T05:51:27.519Z,989.40
2022-10-01T05:52:27.532Z,989.45
2022-10-01T05:53:27.542Z,989.37
2022-10-01T05:54:27.503Z,989.30
2022-10-01T05:55:27.483Z,989.32
2022-10-01T05:56:28.485Z,989.40
2022-10-01T05:57:27.476Z,989.43
2022-10-01T05:58:27.489Z,989.43
2022-10-01T05:59:31.678Z,989.37
2022-10-01T06:00:28.508Z,989.34
2022-10-01T06:01:27.443Z,989.28
2022-10-01T06:02:27.523Z,989.24
2022-10-01T06:03:27.447Z,989.23
2022-10-01T06:04:27.422Z,989.25
2022-10-01T06:05:27.415Z,989.29
2022-10-01T06:06:27.399Z,989.19
2022-10-01T06:07:27.396Z,989.16
2022-10-01T06:08:27.410Z,989.14
2022-10-01T06:09:27.377Z,989.06
2022-10-01T06:10:27.444Z,989.09
2022-10-01T06:11:27.358Z,989.03
2022-10-01T06:12:27.346Z,989.00
2022-10-01T06:13:27.367Z,989.13
2022-10-01T06:14:27.337Z,989.01
2022-10-01T06:15:27.317Z,988.97
2022-10-01T06:16:27.349Z,988.80
2022-10-01T06:17:27.302Z,988.84
2022-10-01T06:18:27.368Z,988.77
2022-10-01T06:19:27.284Z,988.82
2022-10-01T06:20:27.347Z,988.62
2022-10-01T06:21:27.263Z,988.65
2022-10-01T06:22:27.256Z,988.62
2022-10-01T06:23:27.281Z,988.67
2022-10-01T06:24:27.243Z,988.59
2022-10-01T06:25:27.239Z,988.64
2022-10-01T06:26:27.231Z,988.61
2022-10-01T06:27:27.220Z,988.62
2022-10-01T06:28:27.250Z,988.60
2022-10-01T06:29:27.206Z,988.61
2022-10-01T06:30:27.339Z,988.61
2022-10-01T06:31:27.236Z,988.62
2022-10-01T06:32:28.838Z,988.67
2022-10-01T06:33:27.198Z,988.64
2022-10-01T06:34:27.160Z,988.70
2022-10-01T06:35:27.143Z,988.58
2022-10-01T06:36:27.139Z,988.54
2022-10-01T06:37:27.130Z,988.56
2022-10-01T06:38:27.151Z,988.48
2022-10-01T06:39:27.117Z,988.51
2022-10-01T06:40:27.152Z,988.46
2022-10-01T06:41:27.098Z,988.43
2022-10-01T06:42:27.086Z,988.34
2022-10-01T06:43:27.117Z,988.39
2022-10-01T06:44:27.079Z,988.47
2022-10-01T06:45:27.145Z,988.46
2022-10-01T06:46:27.057Z,988.45
2022-10-01T06:47:27.051Z,988.44
2022-10-01T06:48:27.069Z,988.52
2022-10-01T06:49:27.031Z,988.36
2022-10-01T06:50:27.028Z,988.38
2022-10-01T06:51:27.018Z,988.44
2022-10-01T06:52:27.025Z,988.42
2022-10-01T06:53:27.030Z,988.48
2022-10-01T06:54:26.991Z,988.37
2022-10-01T06:55:26.985Z,988.44
2022-10-01T06:56:26.971Z,988.54
2022-10-01T06:57:26.967Z,988.56
2022-10-01T06:58:26.992Z,988.45
2022-10-01T06:59:26.970Z,988.39
2022-10-01T07:00:26.942Z,988.44
2022-10-01T07:01:26.960Z,988.38
2022-10-01T07:02:27.001Z,988.39
2022-10-01T07:03:26.938Z,988.23
2022-10-01T07:04:26.907Z,988.27
2022-10-01T07:05:26.897Z,988.28
2022-10-01T07:06:26.890Z,988.24
2022-10-01T07:07:29.936Z,988.40
2022-10-01T07:08:27.898Z,988.33
2022-10-01T07:09:26.863Z,988.36
2022-10-01T07:10:26.863Z,988.38
2022-10-01T07:11:26.844Z,988.41
2022-10-01T07:12:26.841Z,988.33
2022-10-01T07:13:26.854Z,988.45
2022-10-01T07:14:26.818Z,988.39
2022-10-01T07:15:26.808Z,988.41
2022-10-01T07:16:26.858Z,988.34
2022-10-01T07:17:26.793Z,988.40
2022-10-01T07:18:26.822Z,988.37
2022-10-01T07:19:26.793Z,988.30
2022-10-01T07:20:26.773Z,988.35
2022-10-01T07:21:26.768Z,988.33
2022-10-01T07:22:26.758Z,988.32
2022-10-01T07:23:26.779Z,988.25
2022-10-01T07:24:26.740Z,988.28
2022-10-01T07:25:26.723Z,988.18
2022-10-01T07:26:26.726Z,988.24
2022-10-01T07:27:26.711Z,988.27
2022-10-01T07:28:26.776Z,988.33
2022-10-01T07:29:41.197Z,988.27
2022-10-01T07:30:26.685Z,988.22
2022-10-01T07:31:26.739Z,988.15
2022-10-01T07:32:26.670Z,988.11
2022-10-01T07:33:26.689Z,988.15
2022-10-01T07:34:26.650Z,988.10
2022-10-01T07:35:26.645Z,988.04
2022-10-01T07:36:26.638Z,987.98
2022-10-01T07:37:26.627Z,988.03
2022-10-01T07:38:26.647Z,987.99
2022-10-01T07:39:26.603Z,987.94
2022-10-01T07:40:26.604Z,987.93
2022-10-01T07:41:26.604Z,987.88
2022-10-01T07:42:26.580Z,987.84
2022-10-01T07:43:26.606Z,987.78
2022-10-01T07:44:26.561Z,987.89
2022-10-01T07:45:26.776Z,987.90
2022-10-01T07:46:26.548Z,987.80
2022-10-01T07:47:26.543Z,987.81
2022-10-01T07:48:26.564Z,987.69
2022-10-01T07:49:26.527Z,987.70
2022-10-01T07:50:26.516Z,987.73
2022-10-01T07:51:26.508Z,987.67
2022-10-01T07:52:26.495Z,987.66
2022-10-01T07:53:26.524Z,987.63
2022-10-01T07:54:26.482Z,987.61
2022-10-01T07:55:26.483Z,987.69
2022-10-01T07:56:26.473Z,987.77
2022-10-01T07:57:26.457Z,987.62
2022-10-01T07:58:26.474Z,987.64
2022-10-01T07:59:26.442Z,987.57
2022-10-01T08:00:26.427Z,987.64
2022-10-01T08:01:26.549Z,987.60
2022-10-01T08:02:26.472Z,987.63
2022-10-01T08:03:26.434Z,987.63
2022-10-01T08:04:26.414Z,987.75
2022-10-01T08:05:26.398Z,987.56
2022-10-01T08:06:26.382Z,987.61
2022-10-01T08:07:26.374Z,987.63
2022-10-01T08:08:26.400Z,987.66
2022-10-01T08:09:26.415Z,987.60
2022-10-01T08:10:26.352Z,987.64
2022-10-01T08:11:26.345Z,987.59
2022-10-01T08:12:26.341Z,987.58
2022-10-01T08:13:26.362Z,987.63
2022-10-01T08:14:26.311Z,987.62
2022-10-01T08:15:26.303Z,987.71
2022-10-01T08:16:26.337Z,987.83
2022-10-01T08:17:29.483Z,987.89
2022-10-01T08:18:27.308Z,987.84
2022-10-01T08:19:26.280Z,987.88
2022-10-01T08:20:26.277Z,987.92
2022-10-01T08:21:26.259Z,987.99
2022-10-01T08:22:26.244Z,987.83
2022-10-01T08:23:26.275Z,987.73
2022-10-01T08:24:26.231Z,987.77
2022-10-01T08:25:26.222Z,987.69
2022-10-01T08:26:26.221Z,987.86
2022-10-01T08:27:26.209Z,987.71
2022-10-01T08:28:26.266Z,987.77
2022-10-01T08:29:26.188Z,987.89
2022-10-01T08:30:26.184Z,987.80
2022-10-01T08:31:26.216Z,987.85
2022-10-01T08:32:26.167Z,987.87
2022-10-01T08:33:26.185Z,987.92
2022-10-01T08:34:26.146Z,987.98
2022-10-01T08:35:26.141Z,987.88
2022-10-01T08:36:26.126Z,987.96
2022-10-01T08:37:26.118Z,987.84
2022-10-01T08:38:26.144Z,987.99
2022-10-01T08:39:26.108Z,987.94
2022-10-01T08:40:26.092Z,987.94
2022-10-01T08:41:26.083Z,987.96
2022-10-01T08:42:26.077Z,987.96
2022-10-01T08:43:26.100Z,988.08
2022-10-01T08:44:26.057Z,987.98
2022-10-01T08:45:26.045Z,988.02
2022-10-01T08:46:26.046Z,988.07
2022-10-01T08:47:26.032Z,988.01
2022-10-01T08:48:26.055Z,988.14
2022-10-01T08:49:26.014Z,988.06
2022-10-01T08:50:26.015Z,988.16
2022-10-01T08:51:26.000Z,988.11
2022-10-01T08:52:25.992Z,988.10
2022-10-01T08:53:25.995Z,988.10
2022-10-01T08:54:26.017Z,988.12
2022-10-01T08:55:25.965Z,988.16
2022-10-01T08:56:25.960Z,988.14
2022-10-01T08:57:25.949Z,988.16
2022-10-01T08:58:25.944Z,988.10
2022-10-01T08:59:27.478Z,988.17
2022-10-01T09:00:26.924Z,988.14
2022-10-01T09:01:26.047Z,988.14
2022-10-01T09:02:25.911Z,988.12
2022-10-01T09:03:25.936Z,988.14
2022-10-01T09:04:25.977Z,988.15
2022-10-01T09:05:25.889Z,988.24
2022-10-01T09:06:25.876Z,988.17
2022-10-01T09:07:25.859Z,988.17
2022-10-01T09:08:25.895Z,988.15
2022-10-01T09:09:25.853Z,988.17
2022-10-01T09:10:25.858Z,988.22
2022-10-01T09:11:25.932Z,988.12
2022-10-01T09:12:25.837Z,988.20
2022-10-01T09:13:31.252Z,988.15
2022-10-01T09:14:25.809Z,988.15
2022-10-01T09:15:25.817Z,988.29
2022-10-01T09:16:25.849Z,988.28
2022-10-01T09:17:25.791Z,988.23
2022-10-01T09:18:25.808Z,988.23
2022-10-01T09:19:25.779Z,988.24
2022-10-01T09:20:25.763Z,988.25
2022-10-01T09:21:25.792Z,988.17
2022-10-01T09:22:25.750Z,988.15
2022-10-01T09:23:25.777Z,988.28
2022-10-01T09:24:25.733Z,988.23
2022-10-01T09:25:25.724Z,988.20
2022-10-01T09:26:25.937Z,988.27
2022-10-01T09:27:26.702Z,988.26
2022-10-01T09:28:25.773Z,988.26
2022-10-01T09:29:25.696Z,988.24
2022-10-01T09:30:25.682Z,988.25
2022-10-01T09:31:25.757Z,988.19
2022-10-01T09:32:25.732Z,988.23
2022-10-01T09:33:25.648Z,988.18
2022-10-01T09:34:25.679Z,988.28
2022-10-01T09:35:25.636Z,988.20
2022-10-01T09:36:25.679Z,988.31
2022-10-01T09:37:25.629Z,988.25
2022-10-01T09:38:25.610Z,988.29
2022-10-01T09:39:25.638Z,988.30
2022-10-01T09:40:25.597Z,988.30
2022-10-01T09:41:25.665Z,988.28
2022-10-01T09:42:25.582Z,988.28
2022-10-01T09:43:25.571Z,988.28
2022-10-01T09:44:25.595Z,988.29
2022-10-01T09:45:25.577Z,988.28
2022-10-01T09:46:25.549Z,988.30
2022-10-01T09:47:25.682Z,988.28
2022-10-01T09:48:25.526Z,988.24
2022-10-01T09:49:25.549Z,988.27
2022-10-01T09:50:25.505Z,988.33
2022-10-01T09:51:25.505Z,988.29
2022-10-01T09:52:25.501Z,988.30
2022-10-01T09:53:25.487Z,988.30
2022-10-01T09:54:25.516Z,988.24
2022-10-01T09:55:25.478Z,988.32
2022-10-01T09:56:25.461Z,988.27
2022-10-01T09:57:25.457Z,988.25
2022-10-01T09:58:25.443Z,988.31
2022-10-01T09:59:25.470Z,988.21
2022-10-01T10:00:25.422Z,988.34
2022-10-01T10:01:26.412Z,988.20
2022-10-01T10:02:25.475Z,988.25
2022-10-01T10:03:25.495Z,988.32
2022-10-01T10:04:25.429Z,988.27
2022-10-01T10:05:25.392Z,988.30
2022-10-01T10:06:25.374Z,988.43
2022-10-01T10:07:25.371Z,988.35
2022-10-01T10:08:25.361Z,988.29
2022-10-01T10:09:25.374Z,988.40
2022-10-01T10:10:26.107Z,988.36
2022-10-01T10:11:26.333Z,988.35
2022-10-01T10:12:25.323Z,988.46
2022-10-01T10:13:25.314Z,988.42
2022-10-01T10:14:25.337Z,988.44
2022-10-01T10:15:25.302Z,988.46
2022-10-01T10:16:25.353Z,988.42
2022-10-01T10:17:25.289Z,988.35
2022-10-01T10:18:26.227Z,988.33
2022-10-01T10:19:25.294Z,988.32
2022-10-01T10:20:25.243Z,988.33
2022-10-01T10:21:26.251Z,988.40
2022-10-01T10:22:25.232Z,988.32
2022-10-01T10:23:25.228Z,988.38
2022-10-01T10:24:25.265Z,988.37
2022-10-01T10:25:25.213Z,988.46
2022-10-01T10:26:25.207Z,988.41
2022-10-01T10:27:25.195Z,988.44
2022-10-01T10:28:25.236Z,988.39
2022-10-01T10:29:25.207Z,988.42
2022-10-01T10:30:25.171Z,988.37
2022-10-01T10:31:25.203Z,988.51
2022-10-01T10:32:25.166Z,988.43
2022-10-01T10:33:25.153Z,988.40
2022-10-01T10:34:25.168Z,988.39
2022-10-01T10:35:25.137Z,988.43
2022-10-01T10:36:25.124Z,988.39
2022-10-01T10:37:25.119Z,988.42
2022-10-01T10:38:25.106Z,988.41
2022-10-01T10:39:25.123Z,988.44
2022-10-01T10:40:29.812Z,988.45
2022-10-01T10:41:26.082Z,988.38
2022-10-01T10:42:25.078Z,988.35
2022-10-01T10:43:25.063Z,988.36
2022-10-01T10:44:25.083Z,988.38
2022-10-01T10:45:25.045Z,988.39
2022-10-01T10:46:25.059Z,988.38
2022-10-01T10:47:25.033Z,988.41
2022-10-01T10:48:25.022Z,988.39
2022-10-01T10:49:25.068Z,988.41
2022-10-01T10:50:25.017Z,988.44
2022-10-01T10:51:24.997Z,988.43
2022-10-01T10:52:24.987Z,988.39
2022-10-01T10:53:24.984Z,988.54
2022-10-01T10:54:25.006Z,988.42
2022-10-01T10:55:24.968Z,988.46
2022-10-01T10:56:24.956Z,988.57
2022-10-01T10:57:24.953Z,988.45
2022-10-01T10:58:24.938Z,988.50
2022-10-01T10:59:24.934Z,988.42
2022-10-01T11:00:24.963Z,988.45
2022-10-01T11:01:24.966Z,988.43
2022-10-01T11:02:25.050Z,988.44
2022-10-01T11:03:24.894Z,988.35
2022-10-01T11:04:24.890Z,988.42
2022-10-01T11:05:24.920Z,988.48
2022-10-01T11:06:24.879Z,988.43
2022-10-01T11:07:24.867Z,988.32
2022-10-01T11:08:24.855Z,988.47
2022-10-01T11:09:24.842Z,988.42
2022-10-01T11:10:24.869Z,988.47
2022-10-01T11:11:24.830Z,988.37
2022-10-01T11:12:24.822Z,988.38
2022-10-01T11:13:24.821Z,988.45
2022-10-01T11:14:24.805Z,988.37
2022-10-01T11:15:24.826Z,988.34
2022-10-01T11:16:24.822Z,988.40
2022-10-01T11:17:24.778Z,988.34
2022-10-01T11:18:24.778Z,988.35
2022-10-01T11:19:24.767Z,988.37
2022-10-01T11:20:24.789Z,988.32
2022-10-01T11:21:24.742Z,988.29
2022-10-01T11:22:24.739Z,988.28
2022-10-01T11:23:24.755Z,988.30
2022-10-01T11:24:24.721Z,988.27
2022-10-01T11:25:24.741Z,988.41
2022-10-01T11:26:24.743Z,988.35
2022-10-01T11:27:24.698Z,988.41
2022-10-01T11:28:24.738Z,988.37
2022-10-01T11:29:24.678Z,988.37
2022-10-01T11:30:24.702Z,988.38
2022-10-01T11:31:24.773Z,988.40
2022-10-01T11:32:24.655Z,988.31
2022-10-01T11:33:24.640Z,988.34
2022-10-01T11:34:25.644Z,988.36
2022-10-01T11:35:24.658Z,988.38
2022-10-01T11:36:24.618Z,988.26
2022-10-01T11:37:24.615Z,988.41
2022-10-01T11:38:24.595Z,988.43
2022-10-01T11:39:24.597Z,988.40
2022-10-01T11:40:24.614Z,988.43
2022-10-01T11:41:24.652Z,988.41
2022-10-01T11:42:24.570Z,988.44
2022-10-01T11:43:24.552Z,988.45
2022-10-01T11:44:25.642Z,988.49
2022-10-01T11:45:24.582Z,988.50
2022-10-01T11:46:24.586Z,988.47
2022-10-01T11:47:24.531Z,988.47
2022-10-01T11:48:25.524Z,988.35
2022-10-01T11:49:24.518Z,988.50
2022-10-01T11:50:24.541Z,988.38
2022-10-01T11:51:24.496Z,988.42
2022-10-01T11:52:24.494Z,988.41
2022-10-01T11:53:24.480Z,988.50
2022-10-01T11:54:24.480Z,988.37
2022-10-01T11:55:24.497Z,988.44
2022-10-01T11:56:24.455Z,988.44
2022-10-01T11:57:24.455Z,988.43
2022-10-01T11:58:24.443Z,988.35
2022-10-01T11:59:24.432Z,988.35
2022-10-01T12:00:27.353Z,988.35
2022-10-01T12:01:25.422Z,988.33
2022-10-01T12:02:24.475Z,988.32
2022-10-01T12:03:24.402Z,988.39
2022-10-01T12:04:24.387Z,988.39
2022-10-01T12:05:24.451Z,988.38
2022-10-01T12:06:26.821Z,988.36
2022-10-01T12:07:25.369Z,988.43
2022-10-01T12:08:24.364Z,988.47
2022-10-01T12:09:24.347Z,988.44
2022-10-01T12:10:24.372Z,988.47
2022-10-01T12:11:24.342Z,988.47
2022-10-01T12:12:24.312Z,988.45
2022-10-01T12:13:24.300Z,988.50
2022-10-01T12:14:25.456Z,988.50
2022-10-01T12:15:25.324Z,988.49
2022-10-01T12:16:24.352Z,988.47
2022-10-01T12:17:24.273Z,988.53
2022-10-01T12:18:24.280Z,988.51
2022-10-01T12:19:24.296Z,988.51
2022-10-01T12:20:24.258Z,988.53
2022-10-01T12:21:24.239Z,988.41
2022-10-01T12:22:24.819Z,988.51
2022-10-01T12:23:25.227Z,988.44
2022-10-01T12:24:24.261Z,988.53
2022-10-01T12:25:24.234Z,988.46
2022-10-01T12:26:24.216Z,988.48
2022-10-01T12:27:24.201Z,988.57
2022-10-01T12:28:24.223Z,988.58